createdAt,value
2023-05-07T00:04:03.423Z,100553.81
2023-05-07T00:09:06.486Z,100550.97
2023-05-07T00:14:10.652Z,100547.44
2023-05-07T00:19:13.616Z,100555.41
2023-05-07T00:24:16.378Z,100560.94
2023-05-07T00:29:20.973Z,100563.78
2023-05-07T00:34:23.931Z,100569.63
2023-05-07T00:39:26.680Z,100573.03
2023-05-07T00:44:31.119Z,100564.38
2023-05-07T00:49:39.804Z,100568.19
2023-05-07T00:54:43.575Z,100558.38
2023-05-07T00:59:47.713Z,100562.50
2023-05-07T01:04:50.510Z,100562.06
2023-05-07T01:09:54.332Z,100561.38
2023-05-07T01:14:58.790Z,100568.16
2023-05-07T01:20:01.815Z,100575.97
2023-05-07T01:25:08.252Z,100573.13
2023-05-07T01:30:13.983Z,100575.69
2023-05-07T01:35:21.286Z,100581.78
2023-05-07T01:40:26.799Z,100581.50
2023-05-07T01:45:30.130Z,100578.06
2023-05-07T01:50:34.702Z,100575.53
2023-05-07T01:55:38.806Z,100576.22
2023-05-07T02:00:42.240Z,100570.63
2023-05-07T02:05:45.327Z,100575.84
2023-05-07T02:10:56.952Z,100574.94
2023-05-07T02:16:01.174Z,100574.69
2023-05-07T02:21:04.794Z,100577.81
2023-05-07T02:26:08.873Z,100583.44
2023-05-07T02:31:11.864Z,100589.00
2023-05-07T02:36:15.016Z,100595.22
2023-05-07T02:41:29.302Z,100589.81
2023-05-07T02:46:32.446Z,100583.81
2023-05-07T02:51:43.807Z,100579.03
2023-05-07T02:56:54.573Z,100575.88
2023-05-07T03:01:57.422Z,100579.34
2023-05-07T03:07:00.455Z,100591.69
2023-05-07T03:12:04.683Z,100590.50
2023-05-07T03:17:08.153Z,100580.91
2023-05-07T03:22:10.945Z,100587.16
2023-05-07T03:27:15.075Z,100576.34
2023-05-07T03:32:18.770Z,100572.38
2023-05-07T03:37:22.692Z,100574.59
2023-05-07T03:42:27.401Z,100576.25
2023-05-07T03:47:30.232Z,100570.72
2023-05-07T03:52:33.237Z,100570.28
2023-05-07T03:57:40.745Z,100589.38
2023-05-07T04:02:43.922Z,100595.50
2023-05-07T04:07:47.123Z,100604.91
2023-05-07T04:12:54.700Z,100597.94
2023-05-07T04:17:59.230Z,100601.03
2023-05-07T04:23:02.397Z,100605.59
2023-05-07T04:28:07.854Z,100617.84
2023-05-07T04:33:11.498Z,100621.00
2023-05-07T04:38:17.395Z,100616.72
2023-05-07T04:43:22.529Z,100623.16
2023-05-07T04:48:27.466Z,100628.31
2023-05-07T04:53:30.836Z,100628.19
2023-05-07T04:58:36.316Z,100631.97
2023-05-07T05:03:40.391Z,100636.66
2023-05-07T05:08:44.342Z,100640.03
2023-05-07T05:13:49.909Z,100625.75
2023-05-07T05:18:56.076Z,100637.25
2023-05-07T05:23:58.915Z,100639.72
2023-05-07T05:29:03.646Z,100642.88
2023-05-07T05:34:08.263Z,100647.28
2023-05-07T05:39:12.200Z,100635.81
2023-05-07T05:44:16.410Z,100650.66
2023-05-07T05:49:19.775Z,100661.03
2023-05-07T05:54:22.646Z,100644.94
2023-05-07T05:59:27.375Z,100654.53
2023-05-07T06:04:30.614Z,100650.25
2023-05-07T06:09:34.339Z,100641.44
2023-05-07T06:14:39.115Z,100651.75
2023-05-07T06:19:41.866Z,100649.94
2023-05-07T06:24:46.053Z,100662.47
2023-05-07T06:29:51.490Z,100663.97
2023-05-07T06:34:54.534Z,100684.59
2023-05-07T06:39:59.375Z,100683.59
2023-05-07T06:45:05.552Z,100691.72
2023-05-07T06:50:10.917Z,100701.69
2023-05-07T06:55:15.093Z,100705.25
2023-05-07T07:00:20.663Z,100695.19
2023-05-07T07:05:28.443Z,100708.06
2023-05-07T07:10:31.643Z,100713.28
2023-05-07T07:15:35.915Z,100700.44
2023-05-07T07:20:39.482Z,100699.91
2023-05-07T07:25:44.392Z,100695.03
2023-05-07T07:30:49.374Z,100705.28
2023-05-07T07:35:53.095Z,100709.81
2023-05-07T07:40:56.039Z,100710.56
2023-05-07T07:46:01.647Z,100721.19
2023-05-07T07:51:05.809Z,100708.28
2023-05-07T07:56:09.214Z,100726.81
2023-05-07T08:01:13.886Z,100717.53
2023-05-07T08:06:18.432Z,100720.66
2023-05-07T08:11:22.301Z,100710.75
2023-05-07T08:16:26.998Z,100724.91
2023-05-07T08:21:30.961Z,100711.00
2023-05-07T08:26:36.887Z,100718.84
2023-05-07T08:31:41.449Z,100724.63
2023-05-07T08:36:44.492Z,100720.06
2023-05-07T08:41:57.821Z,100722.41
2023-05-07T08:47:04.198Z,100720.56
2023-05-07T08:52:09.987Z,100734.72
2023-05-07T08:57:13.939Z,100723.94
2023-05-07T09:02:19.184Z,100729.16
2023-05-07T09:07:22.707Z,100732.84
2023-05-07T09:12:25.737Z,100724.28
2023-05-07T09:17:30.245Z,100726.38
2023-05-07T09:22:34.204Z,100725.53
2023-05-07T09:27:41.440Z,100731.84
2023-05-07T09:32:46.229Z,100723.63
2023-05-07T09:37:55.867Z,100719.81
2023-05-07T09:43:11.196Z,100713.66
2023-05-07T09:48:20.471Z,100725.34
2023-05-07T09:53:25.815Z,100719.25
2023-05-07T09:58:30.928Z,100718.72
2023-05-07T10:03:37.465Z,100715.03
2023-05-07T10:08:42.255Z,100719.13
2023-05-07T10:13:45.625Z,100717.25
2023-05-07T10:18:51.868Z,100732.47
2023-05-07T10:24:01.460Z,100718.41
2023-05-07T10:29:14.054Z,100731.38
2023-05-07T10:34:22.491Z,100725.19
2023-05-07T10:39:25.641Z,100727.69
2023-05-07T10:44:29.865Z,100745.16
2023-05-07T10:49:39.541Z,100738.50
2023-05-07T10:54:45.597Z,100732.31
2023-05-07T10:59:50.955Z,100738.66
2023-05-07T11:05:24.012Z,100746.03
2023-05-07T11:10:53.651Z,100740.66
2023-05-07T11:16:20.003Z,100732.47
2023-05-07T11:21:39.389Z,100731.38
2023-05-07T11:26:52.396Z,100731.22
2023-05-07T11:31:58.802Z,100736.75
2023-05-07T11:37:07.736Z,100724.72
2023-05-07T11:42:30.474Z,100718.94
2023-05-07T11:47:33.303Z,100726.44
2023-05-07T11:52:39.190Z,100713.19
2023-05-07T11:57:42.908Z,100726.84
2023-05-07T12:02:47.463Z,100720.00
2023-05-07T12:07:58.337Z,100716.25
2023-05-07T12:13:01.242Z,100712.19
2023-05-07T12:18:04.113Z,100722.41
2023-05-07T12:23:08.326Z,100711.47
2023-05-07T12:28:15.331Z,100706.13
2023-05-07T12:38:24.938Z,100719.94
2023-05-07T12:43:28.998Z,100719.72
2023-05-07T12:48:31.943Z,100741.28
2023-05-07T12:53:43.142Z,100742.53
2023-05-07T12:58:45.834Z,100743.78
2023-05-07T13:03:51.265Z,100745.69
2023-05-07T13:08:55.664Z,100740.88
2023-05-07T13:13:58.700Z,100749.00
2023-05-07T13:19:01.482Z,100751.47
2023-05-07T13:24:05.961Z,100754.00
2023-05-07T13:29:08.699Z,100751.03
2023-05-07T13:34:11.638Z,100739.53
2023-05-07T13:39:15.762Z,100749.25
2023-05-07T13:44:18.511Z,100733.84
2023-05-07T13:49:21.444Z,100729.63
2023-05-07T13:54:25.553Z,100732.88
2023-05-07T13:59:28.373Z,100732.25
2023-05-07T14:04:32.420Z,100738.63
2023-05-07T14:09:36.480Z,100725.28
2023-05-07T14:14:39.186Z,100730.56
2023-05-07T14:19:41.897Z,100735.53
2023-05-07T14:24:48.527Z,100731.28
2023-05-07T14:29:55.919Z,100723.25
2023-05-07T14:34:58.711Z,100724.41
2023-05-07T14:40:03.538Z,100732.88
2023-05-07T14:45:07.405Z,100736.03
2023-05-07T14:50:10.999Z,100728.25
2023-05-07T14:55:16.450Z,100734.63
2023-05-07T15:00:19.596Z,100739.75
2023-05-07T15:05:22.340Z,100747.47
2023-05-07T15:10:26.496Z,100748.41
2023-05-07T15:15:29.249Z,100738.50
2023-05-07T15:20:32.397Z,100746.19
2023-05-07T15:25:36.680Z,100750.81
2023-05-07T15:30:39.529Z,100741.53
2023-05-07T15:35:42.361Z,100754.34
2023-05-07T15:40:46.458Z,100745.13
2023-05-07T15:45:49.265Z,100747.56
2023-05-07T15:50:52.453Z,100741.78
2023-05-07T15:55:56.660Z,100741.59
2023-05-07T16:00:59.400Z,100749.06
2023-05-07T16:06:02.406Z,100745.63
2023-05-07T16:11:06.549Z,100745.81
2023-05-07T16:16:09.493Z,100734.06
2023-05-07T16:21:12.889Z,100742.22
2023-05-07T16:26:17.871Z,100735.97
2023-05-07T16:31:20.813Z,100748.25
2023-05-07T16:36:23.679Z,100747.53
2023-05-07T16:41:27.863Z,100747.88
2023-05-07T16:46:30.836Z,100755.47
2023-05-07T16:51:34.877Z,100757.53
2023-05-07T16:56:39.553Z,100757.69
2023-05-07T17:01:42.781Z,100742.78
2023-05-07T17:06:46.076Z,100743.63
2023-05-07T17:11:50.219Z,100756.53
2023-05-07T17:16:52.960Z,100750.72
2023-05-07T17:21:55.702Z,100758.69
2023-05-07T17:26:59.785Z,100761.00
2023-05-07T17:32:02.569Z,100768.59
2023-05-07T17:37:05.476Z,100772.63
2023-05-07T17:42:09.618Z,100778.88
2023-05-07T17:47:14.106Z,100777.50
2023-05-07T17:52:17.084Z,100796.94
2023-05-07T17:57:22.147Z,100796.94
2023-05-07T18:02:25.157Z,100808.59
2023-05-07T18:07:28.013Z,100816.50
2023-05-07T18:12:32.182Z,100819.09
2023-05-07T18:17:35.108Z,100820.59
2023-05-07T18:22:38.302Z,100821.44
2023-05-07T18:27:42.456Z,100836.81
2023-05-07T18:32:45.314Z,100836.09
2023-05-07T18:37:48.154Z,100848.78
2023-05-07T18:42:52.378Z,100850.91
2023-05-07T18:47:55.238Z,100858.47
2023-05-07T18:52:58.079Z,100865.53
2023-05-07T18:58:02.266Z,100867.06
2023-05-07T19:03:05.693Z,100866.34
2023-05-07T19:08:08.577Z,100866.38
2023-05-07T19:13:12.971Z,100865.81
2023-05-07T19:18:16.153Z,100868.16
2023-05-07T19:23:19.073Z,100882.47
2023-05-07T19:28:23.332Z,100879.44
2023-05-07T19:33:26.857Z,100884.94
2023-05-07T19:38:29.666Z,100891.06
2023-05-07T19:43:36.091Z,100899.81
2023-05-07T19:48:39.077Z,100907.06
2023-05-07T19:53:41.899Z,100919.50
2023-05-07T19:58:46.065Z,100915.88
2023-05-07T20:03:49.042Z,100915.88
2023-05-07T20:08:52.181Z,100938.13
2023-05-07T20:13:56.378Z,100946.00
2023-05-07T20:18:59.208Z,100949.81
2023-05-07T20:24:02.095Z,100950.56
2023-05-07T20:29:06.272Z,100965.09
2023-05-07T20:34:09.156Z,100965.59
2023-05-07T20:39:14.582Z,100972.59
2023-05-07T20:44:19.037Z,100968.69
2023-05-07T20:49:23.101Z,100973.34
2023-05-07T20:54:28.055Z,100980.72
2023-05-07T20:59:34.775Z,100987.31
2023-05-07T21:04:37.715Z,100987.22
2023-05-07T21:09:40.556Z,100989.41
2023-05-07T21:14:44.763Z,100987.06
2023-05-07T21:19:48.263Z,100992.47
2023-05-07T21:24:51.074Z,100997.75
2023-05-07T21:29:58.661Z,101001.16
2023-05-07T21:35:01.677Z,101005.81
2023-05-07T21:40:05.086Z,101002.88
2023-05-07T21:45:10.346Z,101007.38
2023-05-07T21:50:13.445Z,101008.34
2023-05-07T21:55:18.345Z,101003.53
2023-05-07T22:00:23.643Z,100992.75
2023-05-07T22:05:26.525Z,101003.00
2023-05-07T22:10:29.493Z,100999.44
2023-05-07T22:15:37.366Z,101000.88
2023-05-07T22:20:45.425Z,101000.72
2023-05-07T22:25:48.243Z,101001.06
2023-05-07T22:30:52.670Z,100996.53
2023-05-07T22:35:55.580Z,101006.44
2023-05-07T22:40:59.719Z,100999.22
2023-05-07T22:46:04.015Z,101000.69
2023-05-07T22:51:06.978Z,100994.78
2023-05-07T22:56:10.673Z,101001.25
2023-05-07T23:01:16.175Z,101007.78
2023-05-07T23:06:19.146Z,101009.28
2023-05-07T23:11:22.322Z,101005.31
2023-05-07T23:16:26.492Z,101014.44
2023-05-07T23:21:29.371Z,101008.09
2023-05-07T23:26:32.147Z,101016.78
2023-05-07T23:31:36.424Z,101000.53
2023-05-07T23:36:39.308Z,101007.66
2023-05-07T23:41:42.118Z,101013.03
2023-05-07T23:46:46.446Z,101007.75
2023-05-07T23:51:49.303Z,101005.72
2023-05-07T23:56:52.451Z,101017.78
